sensor_id;sensor_type;location;lat;lon;timestamp;P1;durP1;ratioP1;P2;durP2;ratioP2
58260;SDS011;44058;52.898;6.502;2023-04-24T00:02:04;2.00;;;0.60;;
58260;SDS011;44058;52.898;6.502;2023-04-24T00:04:31;0.60;;;0.60;;
58260;SDS011;44058;52.898;6.502;2023-04-24T00:06:58;0.52;;;0.50;;
58260;SDS011;44058;52.898;6.502;2023-04-24T00:09:25;0.68;;;0.68;;
58260;SDS011;44058;52.898;6.502;2023-04-24T00:11:51;0.40;;;0.40;;
58260;SDS011;44058;52.898;6.502;2023-04-24T00:14:18;0.73;;;0.73;;
58260;SDS011;44058;52.898;6.502;2023-04-24T00:16:44;0.95;;;0.60;;
58260;SDS011;44058;52.898;6.502;2023-04-24T00:19:10;1.55;;;0.90;;
58260;SDS011;44058;52.898;6.502;2023-04-24T00:21:37;1.48;;;0.82;;
58260;SDS011;44058;52.898;6.502;2023-04-24T00:24:03;0.85;;;0.70;;
58260;SDS011;44058;52.898;6.502;2023-04-24T00:26:29;0.63;;;0.63;;
58260;SDS011;44058;52.898;6.502;2023-04-24T00:28:56;1.10;;;0.70;;
58260;SDS011;44058;52.898;6.502;2023-04-24T00:31:22;0.63;;;0.63;;
58260;SDS011;44058;52.898;6.502;2023-04-24T00:33:48;2.22;;;0.90;;
58260;SDS011;44058;52.898;6.502;2023-04-24T00:36:14;1.10;;;0.90;;
58260;SDS011;44058;52.898;6.502;2023-04-24T00:38:40;0.95;;;0.88;;
58260;SDS011;44058;52.898;6.502;2023-04-24T00:41:06;0.90;;;0.90;;
58260;SDS011;44058;52.898;6.502;2023-04-24T00:43:32;2.22;;;1.08;;
58260;SDS011;44058;52.898;6.502;2023-04-24T00:45:58;1.00;;;1.00;;
58260;SDS011;44058;52.898;6.502;2023-04-24T00:48:26;1.20;;;1.10;;
58260;SDS011;44058;52.898;6.502;2023-04-24T00:50:53;1.50;;;1.40;;
58260;SDS011;44058;52.898;6.502;2023-04-24T00:53:19;1.52;;;1.30;;
58260;SDS011;44058;52.898;6.502;2023-04-24T00:55:45;1.20;;;1.20;;
58260;SDS011;44058;52.898;6.502;2023-04-24T00:58:12;1.05;;;1.05;;
58260;SDS011;44058;52.898;6.502;2023-04-24T01:00:38;1.10;;;1.10;;
58260;SDS011;44058;52.898;6.502;2023-04-24T01:03:05;1.92;;;1.50;;
58260;SDS011;44058;52.898;6.502;2023-04-24T01:05:31;1.55;;;1.45;;
58260;SDS011;44058;52.898;6.502;2023-04-24T01:07:57;1.88;;;1.63;;
58260;SDS011;44058;52.898;6.502;2023-04-24T01:10:24;1.85;;;1.75;;
58260;SDS011;44058;52.898;6.502;2023-04-24T01:12:51;1.80;;;1.70;;
58260;SDS011;44058;52.898;6.502;2023-04-24T01:15:17;2.28;;;2.08;;
58260;SDS011;44058;52.898;6.502;2023-04-24T01:17:43;2.35;;;2.15;;
58260;SDS011;44058;52.898;6.502;2023-04-24T01:20:10;2.72;;;2.53;;
58260;SDS011;44058;52.898;6.502;2023-04-24T01:22:36;2.50;;;2.30;;
58260;SDS011;44058;52.898;6.502;2023-04-24T01:25:02;3.33;;;2.20;;
58260;SDS011;44058;52.898;6.502;2023-04-24T01:27:28;3.10;;;2.90;;
58260;SDS011;44058;52.898;6.502;2023-04-24T01:29:54;3.20;;;2.90;;
58260;SDS011;44058;52.898;6.502;2023-04-24T01:32:20;3.05;;;2.85;;
58260;SDS011;44058;52.898;6.502;2023-04-24T01:34:47;3.10;;;2.90;;
58260;SDS011;44058;52.898;6.502;2023-04-24T01:37:13;3.67;;;3.38;;
58260;SDS011;44058;52.898;6.502;2023-04-24T01:39:40;3.67;;;3.38;;
58260;SDS011;44058;52.898;6.502;2023-04-24T01:42:06;3.85;;;3.55;;
58260;SDS011;44058;52.898;6.502;2023-04-24T01:44:33;3.92;;;3.63;;
58260;SDS011;44058;52.898;6.502;2023-04-24T01:47:00;5.15;;;3.88;;
58260;SDS011;44058;52.898;6.502;2023-04-24T01:49:26;4.40;;;4.00;;
58260;SDS011;44058;52.898;6.502;2023-04-24T01:51:52;4.65;;;4.20;;
58260;SDS011;44058;52.898;6.502;2023-04-24T01:54:18;4.13;;;3.80;;
58260;SDS011;44058;52.898;6.502;2023-04-24T01:56:44;4.47;;;3.90;;
58260;SDS011;44058;52.898;6.502;2023-04-24T01:59:11;4.57;;;4.18;;
58260;SDS011;44058;52.898;6.502;2023-04-24T02:01:38;3.95;;;3.65;;
58260;SDS011;44058;52.898;6.502;2023-04-24T02:04:05;3.65;;;3.45;;
58260;SDS011;44058;52.898;6.502;2023-04-24T02:06:31;4.55;;;4.03;;
58260;SDS011;44058;52.898;6.502;2023-04-24T02:08:58;3.95;;;3.65;;
58260;SDS011;44058;52.898;6.502;2023-04-24T02:11:24;4.07;;;3.78;;
58260;SDS011;44058;52.898;6.502;2023-04-24T02:13:50;3.97;;;3.72;;
58260;SDS011;44058;52.898;6.502;2023-04-24T02:16:17;3.88;;;3.65;;
58260;SDS011;44058;52.898;6.502;2023-04-24T02:18:43;4.07;;;3.83;;
58260;SDS011;44058;52.898;6.502;2023-04-24T02:21:09;4.10;;;3.80;;
58260;SDS011;44058;52.898;6.502;2023-04-24T02:23:35;3.83;;;3.53;;
58260;SDS011;44058;52.898;6.502;2023-04-24T02:26:01;3.38;;;3.17;;
58260;SDS011;44058;52.898;6.502;2023-04-24T02:28:27;4.55;;;4.25;;
58260;SDS011;44058;52.898;6.502;2023-04-24T02:30:53;3.95;;;3.72;;
58260;SDS011;44058;52.898;6.502;2023-04-24T02:33:19;4.32;;;4.03;;
58260;SDS011;44058;52.898;6.502;2023-04-24T02:35:46;3.83;;;3.60;;
58260;SDS011;44058;52.898;6.502;2023-04-24T02:38:12;4.22;;;3.92;;
58260;SDS011;44058;52.898;6.502;2023-04-24T02:40:38;3.97;;;3.67;;
58260;SDS011;44058;52.898;6.502;2023-04-24T02:50:44;3.75;;;3.45;;
58260;SDS011;44058;52.898;6.502;2023-04-24T02:53:10;3.65;;;3.40;;
58260;SDS011;44058;52.898;6.502;2023-04-24T02:55:36;3.70;;;3.40;;
58260;SDS011;44058;52.898;6.502;2023-04-24T02:58:02;3.22;;;3.00;;
58260;SDS011;44058;52.898;6.502;2023-04-24T03:00:28;3.15;;;2.95;;
58260;SDS011;44058;52.898;6.502;2023-04-24T03:02:54;2.95;;;2.75;;
58260;SDS011;44058;52.898;6.502;2023-04-24T03:05:21;3.15;;;2.90;;
58260;SDS011;44058;52.898;6.502;2023-04-24T03:07:47;2.80;;;2.45;;
58260;SDS011;44058;52.898;6.502;2023-04-24T03:10:13;2.58;;;2.30;;
58260;SDS011;44058;52.898;6.502;2023-04-24T03:12:40;2.95;;;2.50;;
58260;SDS011;44058;52.898;6.502;2023-04-24T03:15:06;2.30;;;2.20;;
58260;SDS011;44058;52.898;6.502;2023-04-24T03:17:32;2.30;;;2.10;;
58260;SDS011;44058;52.898;6.502;2023-04-24T03:19:58;2.78;;;1.95;;
58260;SDS011;44058;52.898;6.502;2023-04-24T03:22:24;2.20;;;2.00;;
58260;SDS011;44058;52.898;6.502;2023-04-24T03:24:50;2.78;;;1.88;;
58260;SDS011;44058;52.898;6.502;2023-04-24T03:27:16;2.95;;;2.20;;
58260;SDS011;44058;52.898;6.502;2023-04-24T03:29:42;3.38;;;2.30;;
58260;SDS011;44058;52.898;6.502;2023-04-24T03:32:08;3.13;;;2.20;;
58260;SDS011;44058;52.898;6.502;2023-04-24T03:34:35;2.38;;;2.25;;
58260;SDS011;44058;52.898;6.502;2023-04-24T03:37:01;3.05;;;2.45;;
58260;SDS011;44058;52.898;6.502;2023-04-24T03:39:27;2.97;;;2.75;;
58260;SDS011;44058;52.898;6.502;2023-04-24T03:41:53;3.22;;;2.83;;
58260;SDS011;44058;52.898;6.502;2023-04-24T03:44:19;3.15;;;2.60;;
58260;SDS011;44058;52.898;6.502;2023-04-24T03:46:45;2.88;;;2.67;;
58260;SDS011;44058;52.898;6.502;2023-04-24T03:49:11;3.22;;;2.92;;
58260;SDS011;44058;52.898;6.502;2023-04-24T03:51:37;4.40;;;2.88;;
58260;SDS011;44058;52.898;6.502;2023-04-24T03:54:03;3.25;;;3.03;;
58260;SDS011;44058;52.898;6.502;2023-04-24T03:56:30;3.25;;;2.95;;
58260;SDS011;44058;52.898;6.502;2023-04-24T03:58:56;3.50;;;3.17;;
58260;SDS011;44058;52.898;6.502;2023-04-24T04:01:22;3.03;;;2.78;;
58260;SDS011;44058;52.898;6.502;2023-04-24T04:03:49;2.58;;;2.38;;
58260;SDS011;44058;52.898;6.502;2023-04-24T04:06:15;2.53;;;2.33;;
58260;SDS011;44058;52.898;6.502;2023-04-24T04:08:42;2.47;;;2.28;;
58260;SDS011;44058;52.898;6.502;2023-04-24T04:11:08;2.00;;;1.90;;
58260;SDS011;44058;52.898;6.502;2023-04-24T04:13:34;1.95;;;1.48;;
58260;SDS011;44058;52.898;6.502;2023-04-24T04:16:00;1.60;;;1.35;;
58260;SDS011;44058;52.898;6.502;2023-04-24T04:18:26;1.10;;;1.00;;
58260;SDS011;44058;52.898;6.502;2023-04-24T04:20:52;0.90;;;0.90;;
58260;SDS011;44058;52.898;6.502;2023-04-24T04:23:18;1.05;;;0.80;;
58260;SDS011;44058;52.898;6.502;2023-04-24T04:25:44;1.35;;;0.63;;
58260;SDS011;44058;52.898;6.502;2023-04-24T04:28:12;2.42;;;0.60;;
58260;SDS011;44058;52.898;6.502;2023-04-24T04:30:38;1.63;;;0.63;;
58260;SDS011;44058;52.898;6.502;2023-04-24T04:33:05;0.65;;;0.60;;
58260;SDS011;44058;52.898;6.502;2023-04-24T04:35:31;0.40;;;0.40;;
58260;SDS011;44058;52.898;6.502;2023-04-24T04:37:57;0.57;;;0.57;;
58260;SDS011;44058;52.898;6.502;2023-04-24T04:40:23;0.65;;;0.65;;
58260;SDS011;44058;52.898;6.502;2023-04-24T04:42:50;1.02;;;0.90;;
58260;SDS011;44058;52.898;6.502;2023-04-24T04:45:18;0.65;;;0.60;;
58260;SDS011;44058;52.898;6.502;2023-04-24T04:47:45;0.80;;;0.80;;
58260;SDS011;44058;52.898;6.502;2023-04-24T04:50:12;1.08;;;0.90;;
58260;SDS011;44058;52.898;6.502;2023-04-24T04:52:38;1.00;;;0.90;;
58260;SDS011;44058;52.898;6.502;2023-04-24T04:55:05;1.40;;;1.00;;
58260;SDS011;44058;52.898;6.502;2023-04-24T04:57:31;1.10;;;0.95;;
58260;SDS011;44058;52.898;6.502;2023-04-24T04:59:57;2.13;;;1.17;;
58260;SDS011;44058;52.898;6.502;2023-04-24T05:02:23;2.53;;;1.30;;
58260;SDS011;44058;52.898;6.502;2023-04-24T05:04:49;1.27;;;1.10;;
58260;SDS011;44058;52.898;6.502;2023-04-24T05:07:16;2.20;;;1.40;;
58260;SDS011;44058;52.898;6.502;2023-04-24T05:09:43;1.88;;;1.50;;
58260;SDS011;44058;52.898;6.502;2023-04-24T05:12:09;1.90;;;1.60;;
58260;SDS011;44058;52.898;6.502;2023-04-24T05:14:35;1.90;;;1.48;;
58260;SDS011;44058;52.898;6.502;2023-04-24T05:17:01;1.50;;;1.40;;
58260;SDS011;44058;52.898;6.502;2023-04-24T05:19:28;2.17;;;1.80;;
58260;SDS011;44058;52.898;6.502;2023-04-24T05:21:54;1.50;;;1.40;;
58260;SDS011;44058;52.898;6.502;2023-04-24T05:24:20;1.50;;;1.38;;
58260;SDS011;44058;52.898;6.502;2023-04-24T05:26:46;2.15;;;1.73;;
58260;SDS011;44058;52.898;6.502;2023-04-24T05:29:12;1.75;;;1.65;;
58260;SDS011;44058;52.898;6.502;2023-04-24T05:31:38;2.10;;;1.90;;
58260;SDS011;44058;52.898;6.502;2023-04-24T05:34:05;1.98;;;1.80;;
58260;SDS011;44058;52.898;6.502;2023-04-24T05:36:31;2.10;;;1.90;;
58260;SDS011;44058;52.898;6.502;2023-04-24T05:38:57;1.77;;;1.67;;
58260;SDS011;44058;52.898;6.502;2023-04-24T05:41:23;2.75;;;1.92;;
58260;SDS011;44058;52.898;6.502;2023-04-24T05:43:50;2.33;;;2.13;;
58260;SDS011;44058;52.898;6.502;2023-04-24T05:46:16;2.50;;;1.90;;
58260;SDS011;44058;52.898;6.502;2023-04-24T05:48:42;2.00;;;1.90;;
58260;SDS011;44058;52.898;6.502;2023-04-24T05:51:09;2.30;;;2.10;;
58260;SDS011;44058;52.898;6.502;2023-04-24T05:53:35;2.72;;;1.90;;
58260;SDS011;44058;52.898;6.502;2023-04-24T05:56:01;1.90;;;1.80;;
58260;SDS011;44058;52.898;6.502;2023-04-24T05:58:27;1.90;;;1.80;;
58260;SDS011;44058;52.898;6.502;2023-04-24T06:00:53;2.72;;;1.75;;
58260;SDS011;44058;52.898;6.502;2023-04-24T06:03:20;2.58;;;2.00;;
58260;SDS011;44058;52.898;6.502;2023-04-24T06:05:46;1.77;;;1.05;;
58260;SDS011;44058;52.898;6.502;2023-04-24T06:08:13;1.85;;;1.10;;
58260;SDS011;44058;52.898;6.502;2023-04-24T06:10:39;1.90;;;1.27;;
58260;SDS011;44058;52.898;6.502;2023-04-24T06:13:06;2.08;;;1.10;;
58260;SDS011;44058;52.898;6.502;2023-04-24T06:15:32;1.02;;;0.93;;
58260;SDS011;44058;52.898;6.502;2023-04-24T06:17:59;0.93;;;0.80;;
58260;SDS011;44058;52.898;6.502;2023-04-24T06:20:25;0.95;;;0.70;;
58260;SDS011;44058;52.898;6.502;2023-04-24T06:22:51;2.15;;;1.00;;
58260;SDS011;44058;52.898;6.502;2023-04-24T06:25:17;2.30;;;1.20;;
58260;SDS011;44058;52.898;6.502;2023-04-24T06:27:44;1.38;;;1.27;;
58260;SDS011;44058;52.898;6.502;2023-04-24T06:30:10;1.80;;;1.00;;
58260;SDS011;44058;52.898;6.502;2023-04-24T06:32:36;2.38;;;1.50;;
58260;SDS011;44058;52.898;6.502;2023-04-24T06:35:02;2.13;;;1.90;;
58260;SDS011;44058;52.898;6.502;2023-04-24T06:37:29;1.52;;;1.40;;
58260;SDS011;44058;52.898;6.502;2023-04-24T06:39:55;1.63;;;1.40;;
58260;SDS011;44058;52.898;6.502;2023-04-24T06:42:21;2.78;;;1.88;;
58260;SDS011;44058;52.898;6.502;2023-04-24T06:44:48;2.20;;;2.00;;
58260;SDS011;44058;52.898;6.502;2023-04-24T06:47:14;2.60;;;2.10;;
58260;SDS011;44058;52.898;6.502;2023-04-24T06:49:41;3.67;;;2.40;;
58260;SDS011;44058;52.898;6.502;2023-04-24T06:52:07;3.45;;;2.47;;
58260;SDS011;44058;52.898;6.502;2023-04-24T06:54:33;3.42;;;2.85;;
58260;SDS011;44058;52.898;6.502;2023-04-24T06:56:59;4.80;;;2.80;;
58260;SDS011;44058;52.898;6.502;2023-04-24T06:59:27;5.35;;;3.63;;
58260;SDS011;44058;52.898;6.502;2023-04-24T07:01:53;5.40;;;3.85;;
58260;SDS011;44058;52.898;6.502;2023-04-24T07:04:19;4.82;;;3.65;;
58260;SDS011;44058;52.898;6.502;2023-04-24T07:06:45;5.22;;;3.67;;
58260;SDS011;44058;52.898;6.502;2023-04-24T07:09:15;5.13;;;3.97;;
58260;SDS011;44058;52.898;6.502;2023-04-24T07:11:42;5.10;;;3.90;;
58260;SDS011;44058;52.898;6.502;2023-04-24T07:14:09;5.15;;;4.13;;
58260;SDS011;44058;52.898;6.502;2023-04-24T07:16:35;7.68;;;3.92;;
58260;SDS011;44058;52.898;6.502;2023-04-24T07:19:02;5.03;;;3.28;;
58260;SDS011;44058;52.898;6.502;2023-04-24T07:21:28;6.30;;;3.40;;
58260;SDS011;44058;52.898;6.502;2023-04-24T07:23:56;3.17;;;2.85;;
58260;SDS011;44058;52.898;6.502;2023-04-24T07:26:22;6.65;;;3.42;;
58260;SDS011;44058;52.898;6.502;2023-04-24T07:28:48;3.45;;;2.70;;
58260;SDS011;44058;52.898;6.502;2023-04-24T07:31:14;4.40;;;2.58;;
58260;SDS011;44058;52.898;6.502;2023-04-24T07:33:40;2.67;;;2.47;;
58260;SDS011;44058;52.898;6.502;2023-04-24T07:36:06;3.42;;;1.90;;
58260;SDS011;44058;52.898;6.502;2023-04-24T07:38:32;5.25;;;1.95;;
58260;SDS011;44058;52.898;6.502;2023-04-24T07:40:59;6.70;;;1.92;;
58260;SDS011;44058;52.898;6.502;2023-04-24T07:43:25;3.53;;;1.50;;
58260;SDS011;44058;52.898;6.502;2023-04-24T07:45:51;5.07;;;1.45;;
58260;SDS011;44058;52.898;6.502;2023-04-24T07:48:17;2.85;;;1.60;;
58260;SDS011;44058;52.898;6.502;2023-04-24T07:50:46;1.98;;;1.60;;
58260;SDS011;44058;52.898;6.502;2023-04-24T07:55:38;3.00;;;1.80;;
58260;SDS011;44058;52.898;6.502;2023-04-24T07:58:04;2.28;;;1.95;;
58260;SDS011;44058;52.898;6.502;2023-04-24T08:00:31;4.07;;;2.00;;
58260;SDS011;44058;52.898;6.502;2023-04-24T08:02:57;2.72;;;1.80;;
58260;SDS011;44058;52.898;6.502;2023-04-24T08:05:23;5.10;;;1.70;;
58260;SDS011;44058;52.898;6.502;2023-04-24T08:07:50;4.63;;;2.10;;
58260;SDS011;44058;52.898;6.502;2023-04-24T08:10:17;3.60;;;1.92;;
58260;SDS011;44058;52.898;6.502;2023-04-24T08:12:43;4.75;;;2.20;;
58260;SDS011;44058;52.898;6.502;2023-04-24T08:15:09;3.97;;;2.25;;
58260;SDS011;44058;52.898;6.502;2023-04-24T08:17:35;5.60;;;3.03;;
58260;SDS011;44058;52.898;6.502;2023-04-24T08:20:02;7.35;;;3.63;;
58260;SDS011;44058;52.898;6.502;2023-04-24T08:22:30;9.13;;;4.32;;
58260;SDS011;44058;52.898;6.502;2023-04-24T08:24:56;9.63;;;5.03;;
58260;SDS011;44058;52.898;6.502;2023-04-24T08:27:23;7.35;;;5.00;;
58260;SDS011;44058;52.898;6.502;2023-04-24T08:29:49;11.63;;;6.28;;
58260;SDS011;44058;52.898;6.502;2023-04-24T08:32:15;9.60;;;5.97;;
58260;SDS011;44058;52.898;6.502;2023-04-24T08:34:41;10.50;;;6.13;;
58260;SDS011;44058;52.898;6.502;2023-04-24T08:37:07;13.27;;;6.97;;
58260;SDS011;44058;52.898;6.502;2023-04-24T08:39:33;11.82;;;7.43;;
58260;SDS011;44058;52.898;6.502;2023-04-24T08:41:59;13.98;;;7.78;;
58260;SDS011;44058;52.898;6.502;2023-04-24T08:44:33;12.40;;;8.00;;
58260;SDS011;44058;52.898;6.502;2023-04-24T08:47:01;14.70;;;7.95;;
58260;SDS011;44058;52.898;6.502;2023-04-24T08:49:28;16.45;;;8.18;;
58260;SDS011;44058;52.898;6.502;2023-04-24T08:51:54;13.18;;;9.25;;
58260;SDS011;44058;52.898;6.502;2023-04-24T08:54:21;18.00;;;10.30;;
58260;SDS011;44058;52.898;6.502;2023-04-24T08:56:47;14.77;;;9.90;;
58260;SDS011;44058;52.898;6.502;2023-04-24T08:59:14;16.58;;;10.60;;
58260;SDS011;44058;52.898;6.502;2023-04-24T09:01:40;14.48;;;9.60;;
58260;SDS011;44058;52.898;6.502;2023-04-24T09:04:07;19.00;;;11.65;;
58260;SDS011;44058;52.898;6.502;2023-04-24T09:06:38;17.27;;;11.02;;
58260;SDS011;44058;52.898;6.502;2023-04-24T09:09:04;19.23;;;10.75;;
58260;SDS011;44058;52.898;6.502;2023-04-24T09:11:31;16.50;;;10.82;;
58260;SDS011;44058;52.898;6.502;2023-04-24T09:13:58;17.48;;;11.13;;
58260;SDS011;44058;52.898;6.502;2023-04-24T09:16:25;14.02;;;10.02;;
58260;SDS011;44058;52.898;6.502;2023-04-24T09:18:51;14.38;;;10.60;;
58260;SDS011;44058;52.898;6.502;2023-04-24T09:21:18;16.85;;;10.57;;
58260;SDS011;44058;52.898;6.502;2023-04-24T09:23:46;12.10;;;9.70;;
58260;SDS011;44058;52.898;6.502;2023-04-24T09:26:12;12.50;;;9.05;;
58260;SDS011;44058;52.898;6.502;2023-04-24T09:28:39;11.88;;;8.80;;
58260;SDS011;44058;52.898;6.502;2023-04-24T09:33:35;11.93;;;7.30;;
58260;SDS011;44058;52.898;6.502;2023-04-24T09:36:01;11.45;;;7.78;;
58260;SDS011;44058;52.898;6.502;2023-04-24T09:38:32;8.27;;;6.60;;
58260;SDS011;44058;52.898;6.502;2023-04-24T09:41:05;10.90;;;6.80;;
58260;SDS011;44058;52.898;6.502;2023-04-24T09:43:31;10.77;;;6.38;;
58260;SDS011;44058;52.898;6.502;2023-04-24T09:45:58;11.10;;;6.78;;
58260;SDS011;44058;52.898;6.502;2023-04-24T09:48:31;11.02;;;6.13;;
58260;SDS011;44058;52.898;6.502;2023-04-24T09:50:57;13.52;;;7.10;;
58260;SDS011;44058;52.898;6.502;2023-04-24T09:53:24;13.85;;;6.05;;
58260;SDS011;44058;52.898;6.502;2023-04-24T09:55:51;10.05;;;6.05;;
58260;SDS011;44058;52.898;6.502;2023-04-24T09:58:18;10.40;;;5.97;;
58260;SDS011;44058;52.898;6.502;2023-04-24T10:00:49;10.05;;;6.07;;
58260;SDS011;44058;52.898;6.502;2023-04-24T10:03:18;13.38;;;6.70;;
58260;SDS011;44058;52.898;6.502;2023-04-24T10:05:45;9.38;;;5.75;;
58260;SDS011;44058;52.898;6.502;2023-04-24T10:08:12;10.63;;;5.68;;
58260;SDS011;44058;52.898;6.502;2023-04-24T10:10:40;12.77;;;5.70;;
58260;SDS011;44058;52.898;6.502;2023-04-24T10:13:07;8.70;;;5.15;;
58260;SDS011;44058;52.898;6.502;2023-04-24T10:15:35;10.15;;;5.30;;
58260;SDS011;44058;52.898;6.502;2023-04-24T10:18:02;6.60;;;4.65;;
58260;SDS011;44058;52.898;6.502;2023-04-24T10:22:57;11.10;;;4.30;;
58260;SDS011;44058;52.898;6.502;2023-04-24T10:25:25;10.80;;;4.15;;
58260;SDS011;44058;52.898;6.502;2023-04-24T10:27:52;10.57;;;4.03;;
58260;SDS011;44058;52.898;6.502;2023-04-24T10:30:19;8.45;;;3.40;;
58260;SDS011;44058;52.898;6.502;2023-04-24T10:32:45;8.27;;;4.18;;
58260;SDS011;44058;52.898;6.502;2023-04-24T10:35:12;9.55;;;3.83;;
58260;SDS011;44058;52.898;6.502;2023-04-24T10:37:40;12.37;;;3.90;;
58260;SDS011;44058;52.898;6.502;2023-04-24T10:40:10;8.47;;;3.13;;
58260;SDS011;44058;52.898;6.502;2023-04-24T10:42:39;7.40;;;3.22;;
58260;SDS011;44058;52.898;6.502;2023-04-24T10:45:07;11.55;;;2.88;;
58260;SDS011;44058;52.898;6.502;2023-04-24T10:47:42;5.28;;;2.80;;
58260;SDS011;44058;52.898;6.502;2023-04-24T10:50:12;8.00;;;2.97;;
58260;SDS011;44058;52.898;6.502;2023-04-24T10:52:44;9.60;;;3.10;;
58260;SDS011;44058;52.898;6.502;2023-04-24T10:55:12;9.98;;;2.90;;
58260;SDS011;44058;52.898;6.502;2023-04-24T10:57:39;9.73;;;2.72;;
58260;SDS011;44058;52.898;6.502;2023-04-24T11:00:24;13.02;;;3.33;;
58260;SDS011;44058;52.898;6.502;2023-04-24T11:02:52;8.38;;;2.88;;
58260;SDS011;44058;52.898;6.502;2023-04-24T11:05:20;9.10;;;3.00;;
58260;SDS011;44058;52.898;6.502;2023-04-24T11:10:31;7.72;;;2.30;;
58260;SDS011;44058;52.898;6.502;2023-04-24T11:12:57;5.07;;;2.58;;
58260;SDS011;44058;52.898;6.502;2023-04-24T11:15:24;5.82;;;2.25;;
58260;SDS011;44058;52.898;6.502;2023-04-24T11:17:50;9.25;;;2.25;;
58260;SDS011;44058;52.898;6.502;2023-04-24T11:20:22;8.43;;;2.33;;
58260;SDS011;44058;52.898;6.502;2023-04-24T11:22:50;7.75;;;2.88;;
58260;SDS011;44058;52.898;6.502;2023-04-24T11:25:19;6.07;;;1.77;;
58260;SDS011;44058;52.898;6.502;2023-04-24T11:27:46;5.50;;;1.90;;
58260;SDS011;44058;52.898;6.502;2023-04-24T11:30:16;6.10;;;2.20;;
58260;SDS011;44058;52.898;6.502;2023-04-24T11:32:42;7.38;;;2.00;;
58260;SDS011;44058;52.898;6.502;2023-04-24T11:35:13;10.15;;;2.30;;
58260;SDS011;44058;52.898;6.502;2023-04-24T11:37:40;6.35;;;2.05;;
58260;SDS011;44058;52.898;6.502;2023-04-24T11:40:08;8.38;;;2.50;;
58260;SDS011;44058;52.898;6.502;2023-04-24T11:42:35;8.35;;;1.90;;
58260;SDS011;44058;52.898;6.502;2023-04-24T11:45:01;6.13;;;2.00;;
58260;SDS011;44058;52.898;6.502;2023-04-24T11:47:29;8.50;;;2.38;;
58260;SDS011;44058;52.898;6.502;2023-04-24T11:49:55;8.55;;;1.67;;
58260;SDS011;44058;52.898;6.502;2023-04-24T11:52:21;6.65;;;1.85;;
58260;SDS011;44058;52.898;6.502;2023-04-24T11:54:48;7.53;;;2.10;;
58260;SDS011;44058;52.898;6.502;2023-04-24T11:57:15;8.68;;;1.80;;
58260;SDS011;44058;52.898;6.502;2023-04-24T11:59:41;5.95;;;1.60;;
58260;SDS011;44058;52.898;6.502;2023-04-24T12:02:07;9.25;;;1.80;;
58260;SDS011;44058;52.898;6.502;2023-04-24T12:04:39;6.40;;;1.50;;
58260;SDS011;44058;52.898;6.502;2023-04-24T12:07:06;4.80;;;1.65;;
58260;SDS011;44058;52.898;6.502;2023-04-24T12:09:40;5.65;;;1.58;;
58260;SDS011;44058;52.898;6.502;2023-04-24T12:12:06;6.68;;;1.50;;
58260;SDS011;44058;52.898;6.502;2023-04-24T12:14:33;5.38;;;1.50;;
58260;SDS011;44058;52.898;6.502;2023-04-24T12:16:59;3.20;;;1.40;;
58260;SDS011;44058;52.898;6.502;2023-04-24T12:19:28;5.70;;;1.45;;
58260;SDS011;44058;52.898;6.502;2023-04-24T12:21:59;6.60;;;1.42;;
58260;SDS011;44058;52.898;6.502;2023-04-24T12:24:25;5.35;;;1.25;;
58260;SDS011;44058;52.898;6.502;2023-04-24T12:26:51;3.35;;;1.40;;
58260;SDS011;44058;52.898;6.502;2023-04-24T12:29:21;6.82;;;1.27;;
58260;SDS011;44058;52.898;6.502;2023-04-24T12:31:47;3.58;;;1.05;;
58260;SDS011;44058;52.898;6.502;2023-04-24T12:34:20;2.65;;;1.00;;
58260;SDS011;44058;52.898;6.502;2023-04-24T12:36:46;4.85;;;1.05;;
58260;SDS011;44058;52.898;6.502;2023-04-24T12:39:16;3.33;;;0.98;;
58260;SDS011;44058;52.898;6.502;2023-04-24T12:41:50;4.03;;;1.10;;
58260;SDS011;44058;52.898;6.502;2023-04-24T12:44:16;1.83;;;0.63;;
58260;SDS011;44058;52.898;6.502;2023-04-24T12:46:43;2.90;;;0.80;;
58260;SDS011;44058;52.898;6.502;2023-04-24T12:49:09;2.30;;;0.90;;
58260;SDS011;44058;52.898;6.502;2023-04-24T12:51:35;4.80;;;1.10;;
58260;SDS011;44058;52.898;6.502;2023-04-24T12:54:01;3.65;;;1.00;;
58260;SDS011;44058;52.898;6.502;2023-04-24T12:56:27;4.68;;;0.80;;
58260;SDS011;44058;52.898;6.502;2023-04-24T12:58:53;2.63;;;0.82;;
58260;SDS011;44058;52.898;6.502;2023-04-24T13:01:19;3.05;;;0.80;;
58260;SDS011;44058;52.898;6.502;2023-04-24T13:03:46;3.22;;;1.13;;
58260;SDS011;44058;52.898;6.502;2023-04-24T13:06:12;3.58;;;1.05;;
58260;SDS011;44058;52.898;6.502;2023-04-24T13:08:38;4.47;;;1.00;;
58260;SDS011;44058;52.898;6.502;2023-04-24T13:11:04;5.55;;;1.08;;
58260;SDS011;44058;52.898;6.502;2023-04-24T13:13:30;3.85;;;0.70;;
58260;SDS011;44058;52.898;6.502;2023-04-24T13:15:56;1.33;;;0.68;;
58260;SDS011;44058;52.898;6.502;2023-04-24T13:18:23;4.63;;;0.70;;
58260;SDS011;44058;52.898;6.502;2023-04-24T13:20:49;3.15;;;0.80;;
58260;SDS011;44058;52.898;6.502;2023-04-24T13:23:15;5.38;;;0.80;;
58260;SDS011;44058;52.898;6.502;2023-04-24T13:25:42;4.90;;;1.00;;
58260;SDS011;44058;52.898;6.502;2023-04-24T13:28:08;1.88;;;0.68;;
58260;SDS011;44058;52.898;6.502;2023-04-24T13:30:34;3.67;;;0.80;;
58260;SDS011;44058;52.898;6.502;2023-04-24T13:33:00;1.77;;;0.85;;
58260;SDS011;44058;52.898;6.502;2023-04-24T13:35:29;5.78;;;0.85;;
58260;SDS011;44058;52.898;6.502;2023-04-24T13:37:55;4.10;;;0.70;;
58260;SDS011;44058;52.898;6.502;2023-04-24T13:40:21;3.58;;;0.88;;
58260;SDS011;44058;52.898;6.502;2023-04-24T13:42:47;4.40;;;1.67;;
58260;SDS011;44058;52.898;6.502;2023-04-24T13:45:13;2.75;;;0.95;;
58260;SDS011;44058;52.898;6.502;2023-04-24T13:47:39;3.78;;;1.17;;
58260;SDS011;44058;52.898;6.502;2023-04-24T13:52:34;3.05;;;1.10;;
58260;SDS011;44058;52.898;6.502;2023-04-24T13:55:00;11.32;;;1.77;;
58260;SDS011;44058;52.898;6.502;2023-04-24T13:57:26;3.97;;;1.25;;
58260;SDS011;44058;52.898;6.502;2023-04-24T13:59:53;4.82;;;1.38;;
58260;SDS011;44058;52.898;6.502;2023-04-24T14:02:21;7.10;;;1.35;;
58260;SDS011;44058;52.898;6.502;2023-04-24T14:04:47;4.53;;;1.15;;
58260;SDS011;44058;52.898;6.502;2023-04-24T14:07:13;3.25;;;1.27;;
58260;SDS011;44058;52.898;6.502;2023-04-24T14:09:39;5.65;;;1.38;;
58260;SDS011;44058;52.898;6.502;2023-04-24T14:12:05;3.47;;;1.15;;
58260;SDS011;44058;52.898;6.502;2023-04-24T14:14:32;6.45;;;1.50;;
58260;SDS011;44058;52.898;6.502;2023-04-24T14:16:58;6.43;;;1.45;;
58260;SDS011;44058;52.898;6.502;2023-04-24T14:19:25;6.15;;;1.48;;
58260;SDS011;44058;52.898;6.502;2023-04-24T14:21:51;6.57;;;1.58;;
58260;SDS011;44058;52.898;6.502;2023-04-24T14:24:17;7.38;;;1.42;;
58260;SDS011;44058;52.898;6.502;2023-04-24T14:26:43;5.80;;;1.65;;
58260;SDS011;44058;52.898;6.502;2023-04-24T14:29:09;5.95;;;1.45;;
58260;SDS011;44058;52.898;6.502;2023-04-24T14:31:35;8.35;;;1.88;;
58260;SDS011;44058;52.898;6.502;2023-04-24T14:34:01;6.22;;;1.60;;
58260;SDS011;44058;52.898;6.502;2023-04-24T14:36:27;8.38;;;1.73;;
58260;SDS011;44058;52.898;6.502;2023-04-24T14:38:53;7.85;;;2.00;;
58260;SDS011;44058;52.898;6.502;2023-04-24T14:41:19;8.32;;;1.90;;
58260;SDS011;44058;52.898;6.502;2023-04-24T14:43:46;8.20;;;1.80;;
58260;SDS011;44058;52.898;6.502;2023-04-24T14:46:12;7.88;;;2.10;;
58260;SDS011;44058;52.898;6.502;2023-04-24T14:48:38;7.10;;;1.83;;
58260;SDS011;44058;52.898;6.502;2023-04-24T14:51:04;7.28;;;1.98;;
58260;SDS011;44058;52.898;6.502;2023-04-24T14:53:30;7.97;;;2.08;;
58260;SDS011;44058;52.898;6.502;2023-04-24T14:55:56;8.65;;;2.42;;
58260;SDS011;44058;52.898;6.502;2023-04-24T14:58:22;6.20;;;1.77;;
58260;SDS011;44058;52.898;6.502;2023-04-24T15:00:48;9.20;;;1.60;;
58260;SDS011;44058;52.898;6.502;2023-04-24T15:03:19;8.07;;;2.50;;